sensor_id;sensor_type;location;lat;lon;timestamp;P1;durP1;ratioP1;P2;durP2;ratioP2
67717;SDS011;54511;47.532;19.180;2022-09-30T00:03:16;15.80;;;7.70;;
67717;SDS011;54511;47.532;19.180;2022-09-30T00:06:04;15.65;;;8.10;;
67717;SDS011;54511;47.532;19.180;2022-09-30T00:09:32;18.10;;;8.10;;
67717;SDS011;54511;47.532;19.180;2022-09-30T00:12:40;16.40;;;9.15;;
67717;SDS011;54511;47.532;19.180;2022-09-30T00:15:29;16.45;;;8.02;;
67717;SDS011;54511;47.532;19.180;2022-09-30T00:18:36;17.30;;;8.30;;
67717;SDS011;54511;47.532;19.180;2022-09-30T00:22:03;15.63;;;8.10;;
67717;SDS011;54511;47.532;19.180;2022-09-30T00:24:50;16.80;;;8.60;;
67717;SDS011;54511;47.532;19.180;2022-09-30T00:27:57;17.02;;;8.35;;
67717;SDS011;54511;47.532;19.180;2022-09-30T00:30:47;14.90;;;8.20;;
67717;SDS011;54511;47.532;19.180;2022-09-30T00:34:14;17.48;;;8.60;;
67717;SDS011;54511;47.532;19.180;2022-09-30T00:37:01;16.52;;;8.13;;
67717;SDS011;54511;47.532;19.180;2022-09-30T00:39:48;16.23;;;8.57;;
67717;SDS011;54511;47.532;19.180;2022-09-30T00:42:35;15.15;;;8.77;;
67717;SDS011;54511;47.532;19.180;2022-09-30T00:45:43;20.33;;;10.40;;
67717;SDS011;54511;47.532;19.180;2022-09-30T00:49:15;16.17;;;8.45;;
67717;SDS011;54511;47.532;19.180;2022-09-30T00:52:20;17.67;;;8.25;;
67717;SDS011;54511;47.532;19.180;2022-09-30T00:55:49;15.73;;;7.90;;
67717;SDS011;54511;47.532;19.180;2022-09-30T00:59:16;15.63;;;7.80;;
67717;SDS011;54511;47.532;19.180;2022-09-30T01:02:45;12.63;;;6.70;;
67717;SDS011;54511;47.532;19.180;2022-09-30T01:05:52;13.40;;;6.82;;
67717;SDS011;54511;47.532;19.180;2022-09-30T01:08:59;12.25;;;7.35;;
67717;SDS011;54511;47.532;19.180;2022-09-30T01:12:08;12.37;;;7.40;;
67717;SDS011;54511;47.532;19.180;2022-09-30T01:15:14;15.05;;;7.20;;
67717;SDS011;54511;47.532;19.180;2022-09-30T01:18:45;15.00;;;7.85;;
67717;SDS011;54511;47.532;19.180;2022-09-30T01:25:40;13.57;;;7.82;;
67717;SDS011;54511;47.532;19.180;2022-09-30T01:29:14;12.37;;;6.87;;
67717;SDS011;54511;47.532;19.180;2022-09-30T01:32:43;15.00;;;7.45;;
67717;SDS011;54511;47.532;19.180;2022-09-30T01:36:15;13.27;;;6.80;;
67717;SDS011;54511;47.532;19.180;2022-09-30T01:39:46;12.30;;;7.40;;
67717;SDS011;54511;47.532;19.180;2022-09-30T01:43:17;16.27;;;7.60;;
67717;SDS011;54511;47.532;19.180;2022-09-30T01:46:45;14.05;;;7.65;;
67717;SDS011;54511;47.532;19.180;2022-09-30T01:50:15;13.85;;;7.68;;
67717;SDS011;54511;47.532;19.180;2022-09-30T01:53:44;15.13;;;7.25;;
67717;SDS011;54511;47.532;19.180;2022-09-30T01:57:11;14.40;;;8.02;;
67717;SDS011;54511;47.532;19.180;2022-09-30T02:00:38;14.55;;;7.50;;
67717;SDS011;54511;47.532;19.180;2022-09-30T02:04:07;15.25;;;7.43;;
67717;SDS011;54511;47.532;19.180;2022-09-30T02:07:38;16.02;;;8.48;;
67717;SDS011;54511;47.532;19.180;2022-09-30T02:11:08;18.10;;;8.10;;
67717;SDS011;54511;47.532;19.180;2022-09-30T02:14:35;14.15;;;7.37;;
67717;SDS011;54511;47.532;19.180;2022-09-30T02:18:09;16.20;;;7.55;;
67717;SDS011;54511;47.532;19.180;2022-09-30T02:21:35;15.25;;;7.82;;
67717;SDS011;54511;47.532;19.180;2022-09-30T02:28:28;14.85;;;7.45;;
67717;SDS011;54511;47.532;19.180;2022-09-30T02:31:56;15.38;;;7.85;;
67717;SDS011;54511;47.532;19.180;2022-09-30T02:35:25;16.17;;;8.07;;
67717;SDS011;54511;47.532;19.180;2022-09-30T02:38:53;14.40;;;8.13;;
67717;SDS011;54511;47.532;19.180;2022-09-30T02:42:26;16.55;;;8.95;;
67717;SDS011;54511;47.532;19.180;2022-09-30T02:45:33;17.55;;;9.00;;
67717;SDS011;54511;47.532;19.180;2022-09-30T02:49:00;17.05;;;8.05;;
67717;SDS011;54511;47.532;19.180;2022-09-30T02:52:28;16.98;;;8.40;;
67717;SDS011;54511;47.532;19.180;2022-09-30T02:56:00;16.23;;;8.25;;
67717;SDS011;54511;47.532;19.180;2022-09-30T02:59:30;17.73;;;7.68;;
67717;SDS011;54511;47.532;19.180;2022-09-30T03:02:37;17.15;;;7.80;;
67717;SDS011;54511;47.532;19.180;2022-09-30T03:05:26;15.38;;;7.43;;
67717;SDS011;54511;47.532;19.180;2022-09-30T03:08:54;12.32;;;7.35;;
67717;SDS011;54511;47.532;19.180;2022-09-30T03:11:41;14.60;;;7.22;;
67717;SDS011;54511;47.532;19.180;2022-09-30T03:15:20;14.05;;;6.82;;
67717;SDS011;54511;47.532;19.180;2022-09-30T03:19:00;14.57;;;7.53;;
67717;SDS011;54511;47.532;19.180;2022-09-30T03:22:36;11.93;;;6.78;;
67717;SDS011;54511;47.532;19.180;2022-09-30T03:26:07;14.68;;;7.57;;
67717;SDS011;54511;47.532;19.180;2022-09-30T03:29:37;13.38;;;6.87;;
67717;SDS011;54511;47.532;19.180;2022-09-30T03:33:06;15.65;;;7.15;;
67717;SDS011;54511;47.532;19.180;2022-09-30T03:36:34;12.37;;;6.60;;
67717;SDS011;54511;47.532;19.180;2022-09-30T03:40:13;13.88;;;7.00;;
67717;SDS011;54511;47.532;19.180;2022-09-30T03:43:35;11.60;;;5.97;;
67717;SDS011;54511;47.532;19.180;2022-09-30T03:47:01;14.52;;;7.05;;
67717;SDS011;54511;47.532;19.180;2022-09-30T03:57:10;16.30;;;7.10;;
67717;SDS011;54511;47.532;19.180;2022-09-30T04:00:48;14.17;;;6.77;;
67717;SDS011;54511;47.532;19.180;2022-09-30T04:03:55;13.18;;;6.40;;
67717;SDS011;54511;47.532;19.180;2022-09-30T04:07:06;14.82;;;7.00;;
67717;SDS011;54511;47.532;19.180;2022-09-30T04:10:16;12.48;;;6.70;;
67717;SDS011;54511;47.532;19.180;2022-09-30T04:13:44;14.95;;;6.95;;
67717;SDS011;54511;47.532;19.180;2022-09-30T04:16:33;16.23;;;7.18;;
67717;SDS011;54511;47.532;19.180;2022-09-30T04:19:49;14.02;;;6.60;;
67717;SDS011;54511;47.532;19.180;2022-09-30T04:22:56;13.43;;;6.57;;
67717;SDS011;54511;47.532;19.180;2022-09-30T04:29:24;13.23;;;6.47;;
67717;SDS011;54511;47.532;19.180;2022-09-30T04:32:31;14.85;;;7.07;;
67717;SDS011;54511;47.532;19.180;2022-09-30T04:35:20;14.45;;;6.90;;
67717;SDS011;54511;47.532;19.180;2022-09-30T04:38:28;13.45;;;6.82;;
67717;SDS011;54511;47.532;19.180;2022-09-30T04:41:55;17.08;;;7.22;;
67717;SDS011;54511;47.532;19.180;2022-09-30T04:45:04;18.37;;;7.18;;
67717;SDS011;54511;47.532;19.180;2022-09-30T04:48:36;13.88;;;6.60;;
67717;SDS011;54511;47.532;19.180;2022-09-30T04:51:43;12.32;;;6.72;;
67717;SDS011;54511;47.532;19.180;2022-09-30T04:54:33;14.10;;;7.07;;
67717;SDS011;54511;47.532;19.180;2022-09-30T04:58:06;12.33;;;6.67;;
67717;SDS011;54511;47.532;19.180;2022-09-30T05:01:25;12.68;;;6.43;;
67717;SDS011;54511;47.532;19.180;2022-09-30T05:07:47;13.60;;;6.85;;
67717;SDS011;54511;47.532;19.180;2022-09-30T05:10:28;12.97;;;6.20;;
67717;SDS011;54511;47.532;19.180;2022-09-30T05:14:09;15.15;;;7.07;;
67717;SDS011;54511;47.532;19.180;2022-09-30T05:20:34;14.90;;;7.40;;
67717;SDS011;54511;47.532;19.180;2022-09-30T05:23:21;13.48;;;7.20;;
67717;SDS011;54511;47.532;19.180;2022-09-30T05:26:44;14.40;;;7.78;;
67717;SDS011;54511;47.532;19.180;2022-09-30T05:30:05;15.10;;;8.25;;
67717;SDS011;54511;47.532;19.180;2022-09-30T05:33:32;19.12;;;8.68;;
67717;SDS011;54511;47.532;19.180;2022-09-30T05:36:39;25.85;;;14.27;;
67717;SDS011;54511;47.532;19.180;2022-09-30T05:39:27;25.70;;;12.43;;
67717;SDS011;54511;47.532;19.180;2022-09-30T05:42:27;17.42;;;9.93;;
67717;SDS011;54511;47.532;19.180;2022-09-30T05:45:35;17.40;;;8.82;;
67717;SDS011;54511;47.532;19.180;2022-09-30T05:52:05;15.43;;;7.15;;
67717;SDS011;54511;47.532;19.180;2022-09-30T05:55:34;12.50;;;6.80;;
67717;SDS011;54511;47.532;19.180;2022-09-30T05:58:43;16.00;;;7.62;;
67717;SDS011;54511;47.532;19.180;2022-09-30T06:02:02;15.18;;;7.70;;
67717;SDS011;54511;47.532;19.180;2022-09-30T06:04:51;14.70;;;6.97;;
67717;SDS011;54511;47.532;19.180;2022-09-30T06:07:58;14.43;;;7.15;;
67717;SDS011;54511;47.532;19.180;2022-09-30T06:11:08;14.45;;;7.25;;
67717;SDS011;54511;47.532;19.180;2022-09-30T06:14:16;15.98;;;7.57;;
67717;SDS011;54511;47.532;19.180;2022-09-30T06:17:03;14.25;;;6.72;;
67717;SDS011;54511;47.532;19.180;2022-09-30T06:19:53;15.75;;;6.87;;
67717;SDS011;54511;47.532;19.180;2022-09-30T06:23:01;15.00;;;6.62;;
67717;SDS011;54511;47.532;19.180;2022-09-30T06:26:09;15.52;;;7.10;;
67717;SDS011;54511;47.532;19.180;2022-09-30T06:29:17;15.02;;;7.12;;
67717;SDS011;54511;47.532;19.180;2022-09-30T06:32:04;15.45;;;6.90;;
67717;SDS011;54511;47.532;19.180;2022-09-30T06:35:14;17.00;;;7.30;;
67717;SDS011;54511;47.532;19.180;2022-09-30T06:38:21;17.67;;;8.13;;
67717;SDS011;54511;47.532;19.180;2022-09-30T06:41:29;16.60;;;7.47;;
67717;SDS011;54511;47.532;19.180;2022-09-30T06:44:36;17.15;;;7.87;;
67717;SDS011;54511;47.532;19.180;2022-09-30T06:47:23;15.73;;;7.07;;
67717;SDS011;54511;47.532;19.180;2022-09-30T06:50:55;12.90;;;6.93;;
67717;SDS011;54511;47.532;19.180;2022-09-30T06:54:03;15.48;;;7.68;;
67717;SDS011;54511;47.532;19.180;2022-09-30T06:56:50;14.13;;;6.90;;
67717;SDS011;54511;47.532;19.180;2022-09-30T06:59:57;13.93;;;6.12;;
67717;SDS011;54511;47.532;19.180;2022-09-30T07:03:05;14.45;;;6.97;;
67717;SDS011;54511;47.532;19.180;2022-09-30T07:06:33;13.82;;;6.70;;
67717;SDS011;54511;47.532;19.180;2022-09-30T07:09:40;15.02;;;6.43;;
67717;SDS011;54511;47.532;19.180;2022-09-30T07:12:28;18.83;;;7.32;;
67717;SDS011;54511;47.532;19.180;2022-09-30T07:15:56;17.92;;;6.78;;
67717;SDS011;54511;47.532;19.180;2022-09-30T07:19:24;14.27;;;6.97;;
67717;SDS011;54511;47.532;19.180;2022-09-30T07:22:13;18.00;;;6.82;;
67717;SDS011;54511;47.532;19.180;2022-09-30T07:25:20;24.90;;;8.18;;
67717;SDS011;54511;47.532;19.180;2022-09-30T07:28:28;19.02;;;8.30;;
67717;SDS011;54511;47.532;19.180;2022-09-30T07:31:58;21.65;;;8.55;;
67717;SDS011;54511;47.532;19.180;2022-09-30T07:34:48;17.55;;;7.30;;
67717;SDS011;54511;47.532;19.180;2022-09-30T07:37:37;14.93;;;7.22;;
67717;SDS011;54511;47.532;19.180;2022-09-30T07:40:52;17.60;;;7.40;;
67717;SDS011;54511;47.532;19.180;2022-09-30T07:44:20;15.20;;;6.47;;
67717;SDS011;54511;47.532;19.180;2022-09-30T07:47:08;16.33;;;6.37;;
67717;SDS011;54511;47.532;19.180;2022-09-30T07:50:15;12.68;;;6.05;;
67717;SDS011;54511;47.532;19.180;2022-09-30T07:53:04;13.00;;;5.97;;
67717;SDS011;54511;47.532;19.180;2022-09-30T07:56:12;13.07;;;6.35;;
67717;SDS011;54511;47.532;19.180;2022-09-30T07:59:39;8.68;;;4.75;;
67717;SDS011;54511;47.532;19.180;2022-09-30T08:02:46;11.48;;;5.80;;
67717;SDS011;54511;47.532;19.180;2022-09-30T08:05:37;10.13;;;5.80;;
67717;SDS011;54511;47.532;19.180;2022-09-30T08:09:10;10.75;;;5.50;;
67717;SDS011;54511;47.532;19.180;2022-09-30T08:12:18;9.68;;;5.22;;
67717;SDS011;54511;47.532;19.180;2022-09-30T08:15:26;11.12;;;5.60;;
67717;SDS011;54511;47.532;19.180;2022-09-30T08:18:34;10.05;;;5.20;;
67717;SDS011;54511;47.532;19.180;2022-09-30T08:21:42;12.95;;;5.28;;
67717;SDS011;54511;47.532;19.180;2022-09-30T08:25:07;12.35;;;5.45;;
67717;SDS011;54511;47.532;19.180;2022-09-30T08:28:14;11.12;;;5.95;;
67717;SDS011;54511;47.532;19.180;2022-09-30T08:31:24;11.20;;;5.35;;
67717;SDS011;54511;47.532;19.180;2022-09-30T08:34:13;10.90;;;6.00;;
67717;SDS011;54511;47.532;19.180;2022-09-30T08:37:01;11.70;;;5.32;;
67717;SDS011;54511;47.532;19.180;2022-09-30T08:46:41;13.73;;;6.93;;
67717;SDS011;54511;47.532;19.180;2022-09-30T08:50:09;14.05;;;7.22;;
67717;SDS011;54511;47.532;19.180;2022-09-30T08:53:40;15.82;;;7.32;;
67717;SDS011;54511;47.532;19.180;2022-09-30T08:57:13;17.67;;;9.05;;
67717;SDS011;54511;47.532;19.180;2022-09-30T09:00:44;17.80;;;8.70;;
67717;SDS011;54511;47.532;19.180;2022-09-30T09:04:20;17.77;;;9.15;;
67717;SDS011;54511;47.532;19.180;2022-09-30T09:10:26;19.00;;;9.02;;
67717;SDS011;54511;47.532;19.180;2022-09-30T09:14:00;18.80;;;9.70;;
67717;SDS011;54511;47.532;19.180;2022-09-30T09:17:38;18.80;;;10.15;;
67717;SDS011;54511;47.532;19.180;2022-09-30T09:21:20;22.40;;;10.18;;
67717;SDS011;54511;47.532;19.180;2022-09-30T09:24:42;20.95;;;10.75;;
67717;SDS011;54511;47.532;19.180;2022-09-30T09:28:12;17.67;;;10.05;;
67717;SDS011;54511;47.532;19.180;2022-09-30T09:31:39;19.37;;;9.27;;
67717;SDS011;54511;47.532;19.180;2022-09-30T09:34:51;17.27;;;9.30;;
67717;SDS011;54511;47.532;19.180;2022-09-30T09:38:21;15.43;;;8.25;;
67717;SDS011;54511;47.532;19.180;2022-09-30T09:41:48;15.23;;;8.55;;
67717;SDS011;54511;47.532;19.180;2022-09-30T09:45:18;13.02;;;7.32;;
67717;SDS011;54511;47.532;19.180;2022-09-30T09:48:44;13.75;;;7.37;;
67717;SDS011;54511;47.532;19.180;2022-09-30T09:51:32;12.82;;;6.95;;
67717;SDS011;54511;47.532;19.180;2022-09-30T09:55:00;11.65;;;6.62;;
67717;SDS011;54511;47.532;19.180;2022-09-30T09:57:47;13.38;;;6.62;;
67717;SDS011;54511;47.532;19.180;2022-09-30T10:01:18;12.35;;;6.50;;
67717;SDS011;54511;47.532;19.180;2022-09-30T10:04:46;11.05;;;6.10;;
67717;SDS011;54511;47.532;19.180;2022-09-30T10:08:20;10.77;;;5.93;;
67717;SDS011;54511;47.532;19.180;2022-09-30T10:11:46;9.82;;;4.80;;
67717;SDS011;54511;47.532;19.180;2022-09-30T10:14:33;8.20;;;4.70;;
67717;SDS011;54511;47.532;19.180;2022-09-30T10:18:03;7.37;;;4.15;;
67717;SDS011;54511;47.532;19.180;2022-09-30T10:20:54;7.10;;;3.65;;
67717;SDS011;54511;47.532;19.180;2022-09-30T10:23:38;7.65;;;3.60;;
67717;SDS011;54511;47.532;19.180;2022-09-30T10:26:27;5.35;;;3.60;;
67717;SDS011;54511;47.532;19.180;2022-09-30T10:29:08;4.65;;;3.10;;
67717;SDS011;54511;47.532;19.180;2022-09-30T10:32:19;6.05;;;3.58;;
67717;SDS011;54511;47.532;19.180;2022-09-30T10:34:53;4.97;;;3.22;;
67717;SDS011;54511;47.532;19.180;2022-09-30T10:37:24;4.47;;;2.90;;
67717;SDS011;54511;47.532;19.180;2022-09-30T10:39:56;5.28;;;3.10;;
67717;SDS011;54511;47.532;19.180;2022-09-30T10:42:44;5.30;;;3.15;;
67717;SDS011;54511;47.532;19.180;2022-09-30T10:45:30;4.90;;;2.92;;
67717;SDS011;54511;47.532;19.180;2022-09-30T10:48:04;5.37;;;3.05;;
67717;SDS011;54511;47.532;19.180;2022-09-30T10:50:39;5.35;;;3.15;;
67717;SDS011;54511;47.532;19.180;2022-09-30T10:53:10;5.03;;;2.87;;
67717;SDS011;54511;47.532;19.180;2022-09-30T10:56:32;5.53;;;3.20;;
67717;SDS011;54511;47.532;19.180;2022-09-30T10:59:39;7.35;;;3.30;;
67717;SDS011;54511;47.532;19.180;2022-09-30T11:02:33;6.60;;;3.10;;
67717;SDS011;54511;47.532;19.180;2022-09-30T11:05:26;4.22;;;3.10;;
67717;SDS011;54511;47.532;19.180;2022-09-30T11:11:23;6.90;;;3.12;;
67717;SDS011;54511;47.532;19.180;2022-09-30T11:14:22;6.90;;;2.78;;
67717;SDS011;54511;47.532;19.180;2022-09-30T11:17:31;4.05;;;2.47;;
67717;SDS011;54511;47.532;19.180;2022-09-30T11:20:40;3.90;;;2.67;;
67717;SDS011;54511;47.532;19.180;2022-09-30T11:23:47;5.28;;;2.53;;
67717;SDS011;54511;47.532;19.180;2022-09-30T11:26:41;5.25;;;2.60;;
67717;SDS011;54511;47.532;19.180;2022-09-30T11:29:52;6.07;;;2.90;;
67717;SDS011;54511;47.532;19.180;2022-09-30T11:32:47;4.40;;;2.80;;
67717;SDS011;54511;47.532;19.180;2022-09-30T11:35:59;5.45;;;2.50;;
67717;SDS011;54511;47.532;19.180;2022-09-30T11:39:32;4.07;;;2.50;;
67717;SDS011;54511;47.532;19.180;2022-09-30T11:42:46;4.40;;;2.37;;
67717;SDS011;54511;47.532;19.180;2022-09-30T11:45:54;3.10;;;2.20;;
67717;SDS011;54511;47.532;19.180;2022-09-30T11:49:00;6.70;;;2.85;;
67717;SDS011;54511;47.532;19.180;2022-09-30T11:52:13;3.17;;;2.10;;
67717;SDS011;54511;47.532;19.180;2022-09-30T11:58:48;3.80;;;2.20;;
67717;SDS011;54511;47.532;19.180;2022-09-30T12:02:17;3.53;;;2.20;;
67717;SDS011;54511;47.532;19.180;2022-09-30T12:05:23;3.60;;;2.42;;
67717;SDS011;54511;47.532;19.180;2022-09-30T12:08:50;5.47;;;2.55;;
67717;SDS011;54511;47.532;19.180;2022-09-30T12:12:18;3.58;;;2.33;;
67717;SDS011;54511;47.532;19.180;2022-09-30T12:15:31;4.57;;;1.77;;
67717;SDS011;54511;47.532;19.180;2022-09-30T12:18:21;2.00;;;1.30;;
67717;SDS011;54511;47.532;19.180;2022-09-30T12:21:31;3.80;;;0.93;;
67717;SDS011;54511;47.532;19.180;2022-09-30T12:24:20;4.10;;;1.40;;
67717;SDS011;54511;47.532;19.180;2022-09-30T12:27:48;1.17;;;1.00;;
67717;SDS011;54511;47.532;19.180;2022-09-30T12:31:18;1.67;;;1.20;;
67717;SDS011;54511;47.532;19.180;2022-09-30T12:34:43;1.80;;;1.30;;
67717;SDS011;54511;47.532;19.180;2022-09-30T12:37:56;2.10;;;1.20;;
67717;SDS011;54511;47.532;19.180;2022-09-30T12:41:28;1.10;;;1.00;;
67717;SDS011;54511;47.532;19.180;2022-09-30T12:45:08;3.05;;;1.00;;
67717;SDS011;54511;47.532;19.180;2022-09-30T12:48:55;1.73;;;1.17;;
67717;SDS011;54511;47.532;19.180;2022-09-30T12:52:06;1.25;;;0.90;;
67717;SDS011;54511;47.532;19.180;2022-09-30T12:55:36;1.25;;;0.95;;
67717;SDS011;54511;47.532;19.180;2022-09-30T12:59:07;1.40;;;1.00;;
67717;SDS011;54511;47.532;19.180;2022-09-30T13:02:23;0.75;;;0.75;;
67717;SDS011;54511;47.532;19.180;2022-09-30T13:05:59;1.10;;;1.00;;
67717;SDS011;54511;47.532;19.180;2022-09-30T13:09:29;0.80;;;0.80;;
67717;SDS011;54511;47.532;19.180;2022-09-30T13:13:14;1.15;;;0.90;;
67717;SDS011;54511;47.532;19.180;2022-09-30T13:20:01;0.80;;;0.80;;
67717;SDS011;54511;47.532;19.180;2022-09-30T13:23:38;3.83;;;1.33;;
67717;SDS011;54511;47.532;19.180;2022-09-30T13:26:44;1.50;;;1.10;;
67717;SDS011;54511;47.532;19.180;2022-09-30T13:29:58;4.12;;;1.15;;
67717;SDS011;54511;47.532;19.180;2022-09-30T13:33:40;1.52;;;1.20;;
67717;SDS011;54511;47.532;19.180;2022-09-30T13:37:22;1.98;;;1.27;;
67717;SDS011;54511;47.532;19.180;2022-09-30T13:40:46;1.33;;;1.00;;
67717;SDS011;54511;47.532;19.180;2022-09-30T13:44:18;1.20;;;1.10;;
67717;SDS011;54511;47.532;19.180;2022-09-30T13:47:44;2.20;;;1.30;;
67717;SDS011;54511;47.532;19.180;2022-09-30T13:51:13;1.12;;;1.02;;
67717;SDS011;54511;47.532;19.180;2022-09-30T13:53:46;1.67;;;1.20;;
67717;SDS011;54511;47.532;19.180;2022-09-30T13:57:17;2.20;;;1.37;;
67717;SDS011;54511;47.532;19.180;2022-09-30T14:00:38;1.83;;;1.20;;
67717;SDS011;54511;47.532;19.180;2022-09-30T14:04:12;1.30;;;1.10;;
67717;SDS011;54511;47.532;19.180;2022-09-30T14:07:50;2.33;;;1.48;;
67717;SDS011;54511;47.532;19.180;2022-09-30T14:11:24;2.35;;;1.62;;
67717;SDS011;54511;47.532;19.180;2022-09-30T14:14:51;2.05;;;1.40;;
67717;SDS011;54511;47.532;19.180;2022-09-30T14:18:21;3.90;;;1.50;;
67717;SDS011;54511;47.532;19.180;2022-09-30T14:21:29;2.12;;;1.30;;
67717;SDS011;54511;47.532;19.180;2022-09-30T14:24:20;2.80;;;1.80;;
67717;SDS011;54511;47.532;19.180;2022-09-30T14:27:40;3.35;;;1.60;;
67717;SDS011;54511;47.532;19.180;2022-09-30T14:30:38;2.35;;;1.65;;
67717;SDS011;54511;47.532;19.180;2022-09-30T14:33:59;2.17;;;1.50;;
67717;SDS011;54511;47.532;19.180;2022-09-30T14:37:26;4.28;;;1.60;;
67717;SDS011;54511;47.532;19.180;2022-09-30T14:41:01;2.10;;;1.27;;
67717;SDS011;54511;47.532;19.180;2022-09-30T14:44:28;3.20;;;1.70;;
67717;SDS011;54511;47.532;19.180;2022-09-30T14:54:16;3.45;;;1.98;;
67717;SDS011;54511;47.532;19.180;2022-09-30T14:57:23;1.92;;;1.50;;
67717;SDS011;54511;47.532;19.180;2022-09-30T15:00:19;2.50;;;1.50;;
67717;SDS011;54511;47.532;19.180;2022-09-30T15:03:28;2.58;;;1.55;;
67717;SDS011;54511;47.532;19.180;2022-09-30T15:06:55;3.30;;;1.90;;
67717;SDS011;54511;47.532;19.180;2022-09-30T15:10:04;2.42;;;1.70;;
67717;SDS011;54511;47.532;19.180;2022-09-30T15:13:14;1.80;;;1.25;;
67717;SDS011;54511;47.532;19.180;2022-09-30T15:16:46;1.75;;;1.48;;
67717;SDS011;54511;47.532;19.180;2022-09-30T15:20:23;1.92;;;1.40;;
67717;SDS011;54511;47.532;19.180;2022-09-30T15:23:30;2.92;;;1.70;;
67717;SDS011;54511;47.532;19.180;2022-09-30T15:27:00;1.83;;;1.50;;
67717;SDS011;54511;47.532;19.180;2022-09-30T15:30:28;3.40;;;1.65;;
67717;SDS011;54511;47.532;19.180;2022-09-30T15:33:59;2.78;;;1.50;;
67717;SDS011;54511;47.532;19.180;2022-09-30T15:37:26;3.17;;;1.60;;
67717;SDS011;54511;47.532;19.180;2022-09-30T15:40:33;2.10;;;1.40;;
67717;SDS011;54511;47.532;19.180;2022-09-30T15:44:02;2.87;;;1.80;;
67717;SDS011;54511;47.532;19.180;2022-09-30T15:47:51;4.12;;;1.62;;
67717;SDS011;54511;47.532;19.180;2022-09-30T15:51:21;2.30;;;1.83;;
67717;SDS011;54511;47.532;19.180;2022-09-30T15:54:51;2.80;;;1.80;;
67717;SDS011;54511;47.532;19.180;2022-09-30T15:57:42;4.05;;;2.03;;
67717;SDS011;54511;47.532;19.180;2022-09-30T16:00:45;3.35;;;1.92;;
67717;SDS011;54511;47.532;19.180;2022-09-30T16:07:27;4.53;;;3.20;;
67717;SDS011;54511;47.532;19.180;2022-09-30T16:10:33;5.12;;;2.58;;
67717;SDS011;54511;47.532;19.180;2022-09-30T16:14:00;5.97;;;2.78;;
67717;SDS011;54511;47.532;19.180;2022-09-30T16:17:29;4.32;;;2.25;;
67717;SDS011;54511;47.532;19.180;2022-09-30T16:20:36;3.37;;;2.10;;
67717;SDS011;54511;47.532;19.180;2022-09-30T16:23:27;2.67;;;1.80;;
67717;SDS011;54511;47.532;19.180;2022-09-30T16:26:33;6.10;;;2.30;;
67717;SDS011;54511;47.532;19.180;2022-09-30T16:29:20;4.12;;;2.03;;
67717;SDS011;54511;47.532;19.180;2022-09-30T16:32:31;5.18;;;2.65;;
67717;SDS011;54511;47.532;19.180;2022-09-30T16:35:57;6.95;;;3.47;;
67717;SDS011;54511;47.532;19.180;2022-09-30T16:38:44;7.10;;;2.67;;
67717;SDS011;54511;47.532;19.180;2022-09-30T16:41:31;4.30;;;2.53;;
67717;SDS011;54511;47.532;19.180;2022-09-30T16:44:38;7.70;;;2.97;;
67717;SDS011;54511;47.532;19.180;2022-09-30T16:47:47;6.00;;;2.55;;
67717;SDS011;54511;47.532;19.180;2022-09-30T16:50:32;3.55;;;2.40;;
67717;SDS011;54511;47.532;19.180;2022-09-30T16:53:40;3.90;;;2.45;;
67717;SDS011;54511;47.532;19.180;2022-09-30T16:56:27;5.10;;;2.95;;
67717;SDS011;54511;47.532;19.180;2022-09-30T16:59:15;7.45;;;4.80;;
67717;SDS011;54511;47.532;19.180;2022-09-30T17:02:22;5.37;;;3.33;;
67717;SDS011;54511;47.532;19.180;2022-09-30T17:05:14;4.10;;;2.92;;
67717;SDS011;54511;47.532;19.180;2022-09-30T17:08:22;3.70;;;2.90;;
67717;SDS011;54511;47.532;19.180;2022-09-30T17:11:09;5.85;;;3.10;;
67717;SDS011;54511;47.532;19.180;2022-09-30T17:14:39;4.95;;;3.47;;
67717;SDS011;54511;47.532;19.180;2022-09-30T17:17:46;7.60;;;3.83;;
67717;SDS011;54511;47.532;19.180;2022-09-30T17:21:16;7.50;;;4.30;;
67717;SDS011;54511;47.532;19.180;2022-09-30T17:24:24;5.90;;;3.72;;
67717;SDS011;54511;47.532;19.180;2022-09-30T17:27:11;8.13;;;4.20;;
67717;SDS011;54511;47.532;19.180;2022-09-30T17:30:01;6.68;;;3.60;;
67717;SDS011;54511;47.532;19.180;2022-09-30T17:33:13;9.52;;;3.65;;
67717;SDS011;54511;47.532;19.180;2022-09-30T17:36:24;6.93;;;3.87;;
67717;SDS011;54511;47.532;19.180;2022-09-30T17:39:26;6.03;;;3.78;;
67717;SDS011;54511;47.532;19.180;2022-09-30T17:42:28;9.50;;;4.15;;
67717;SDS011;54511;47.532;19.180;2022-09-30T17:45:13;7.20;;;4.30;;
67717;SDS011;54511;47.532;19.180;2022-09-30T17:48:01;6.43;;;3.70;;
67717;SDS011;54511;47.532;19.180;2022-09-30T17:51:13;7.00;;;4.03;;
67717;SDS011;54511;47.532;19.180;2022-09-30T17:54:44;5.70;;;4.10;;
67717;SDS011;54511;47.532;19.180;2022-09-30T17:57:33;6.72;;;4.07;;
67717;SDS011;54511;47.532;19.180;2022-09-30T18:01:04;8.65;;;4.65;;
67717;SDS011;54511;47.532;19.180;2022-09-30T18:04:31;6.93;;;4.20;;
67717;SDS011;54511;47.532;19.180;2022-09-30T18:07:28;5.87;;;4.18;;
67717;SDS011;54511;47.532;19.180;2022-09-30T18:10:57;9.82;;;3.95;;
67717;SDS011;54511;47.532;19.180;2022-09-30T18:14:28;6.75;;;3.80;;
67717;SDS011;54511;47.532;19.180;2022-09-30T18:17:29;7.10;;;3.60;;
67717;SDS011;54511;47.532;19.180;2022-09-30T18:20:16;5.37;;;3.30;;
67717;SDS011;54511;47.532;19.180;2022-09-30T18:27:11;9.32;;;5.10;;
67717;SDS011;54511;47.532;19.180;2022-09-30T18:30:19;7.97;;;4.70;;
67717;SDS011;54511;47.532;19.180;2022-09-30T18:33:47;9.27;;;4.75;;
67717;SDS011;54511;47.532;19.180;2022-09-30T18:36:47;6.82;;;4.50;;
67717;SDS011;54511;47.532;19.180;2022-09-30T18:39:36;9.35;;;4.93;;
67717;SDS011;54511;47.532;19.180;2022-09-30T18:43:03;8.38;;;4.43;;
67717;SDS011;54511;47.532;19.180;2022-09-30T18:45:51;8.18;;;4.50;;
67717;SDS011;54511;47.532;19.180;2022-09-30T18:49:08;8.85;;;4.93;;
67717;SDS011;54511;47.532;19.180;2022-09-30T18:52:34;10.95;;;5.95;;
67717;SDS011;54511;47.532;19.180;2022-09-30T18:55:24;16.45;;;7.20;;
67717;SDS011;54511;47.532;19.180;2022-09-30T18:58:31;15.77;;;7.20;;
67717;SDS011;54511;47.532;19.180;2022-09-30T19:01:38;17.27;;;7.65;;
67717;SDS011;54511;47.532;19.180;2022-09-30T19:04:45;16.58;;;8.02;;
67717;SDS011;54511;47.532;19.180;2022-09-30T19:07:32;16.75;;;7.45;;
67717;SDS011;54511;47.532;19.180;2022-09-30T19:10:19;17.98;;;7.22;;
67717;SDS011;54511;47.532;19.180;2022-09-30T19:13:57;16.27;;;6.97;;
67717;SDS011;54511;47.532;19.180;2022-09-30T19:17:26;14.82;;;7.30;;
67717;SDS011;54511;47.532;19.180;2022-09-30T19:20:34;13.23;;;7.00;;
67717;SDS011;54511;47.532;19.180;2022-09-30T19:23:50;20.30;;;8.70;;
67717;SDS011;54511;47.532;19.180;2022-09-30T19:26:41;22.65;;;8.77;;
67717;SDS011;54511;47.532;19.180;2022-09-30T19:30:09;14.98;;;7.85;;
67717;SDS011;54511;47.532;19.180;2022-09-30T19:33:17;15.32;;;8.18;;
67717;SDS011;54511;47.532;19.180;2022-09-30T19:36:28;15.63;;;8.03;;
67717;SDS011;54511;47.532;19.180;2022-09-30T19:39:56;19.23;;;9.02;;
67717;SDS011;54511;47.532;19.180;2022-09-30T19:46:37;20.52;;;10.45;;
67717;SDS011;54511;47.532;19.180;2022-09-30T19:49:24;22.13;;;9.43;;
67717;SDS011;54511;47.532;19.180;2022-09-30T19:52:12;18.67;;;9.32;;
67717;SDS011;54511;47.532;19.180;2022-09-30T19:55:39;17.60;;;8.07;;
67717;SDS011;54511;47.532;19.180;2022-09-30T19:59:08;15.88;;;8.23;;